Data for 04/04/2005

Time Sea-Level Adjusted Pressure Absolute Pressure Temperature Relative Humidity Dew Point   
(mb) (inHg) (mb) (inHg) (C) (F) (%) (C) (F)
00:05 1006 29.71 835 24.66 8.3 46.9 45 -3 26.6
00:10 1006 29.71 835 24.66 8.4 47.1 45 -2.8 27
00:15 1006 29.71 835 24.66 8.2 46.7 48 -2.3 27.9
00:20 1006 29.71 835 24.66 8 46.3 49 -2.1 28.1
00:25 1006 29.71 835 24.66 7.9 46.3 50 -1.9 28.6
00:30 1006 29.71 835 24.66 7.7 45.9 51 -1.8 28.7
00:35 1006 29.71 835 24.66 7.4 45.4 53 -1.6 29.1
00:40 1006 29.71 835 24.66 7.4 45.3 53 -1.6 29.1
00:45 1006 29.71 835 24.66 7.3 45.2 53 -1.5 29.3
00:50 1006 29.71 835 24.66 7.4 45.3 54 -1.4 29.5
00:55 1006 29.71 835 24.66 7.4 45.4 54 -1.3 29.6
01:00 1006 29.71 835 24.66 7.4 45.3 54 -1.3 29.7
01:05 1006 29.71 835 24.66 7.3 45.1 54 -1.3 29.6
01:10 1006 29.71 835 24.66 7.1 44.8 55 -1.2 29.8
01:15 1006 29.71 835 24.66 7.1 44.8 55 -1.3 29.7
01:20 1006 29.71 835 24.66 7.1 44.8 55 -1.3 29.7
01:25 1006 29.71 835 24.66 7.1 44.8 55 -1.2 29.8
01:30 1006 29.71 835 24.66 7.1 44.8 56 -1.1 30
01:35 1006 29.71 835 24.66 7.2 44.9 55 -1.2 29.9
01:40 1006 29.71 835 24.66 7.2 45 55 -1.1 30.1
01:45 1006 29.71 835 24.66 7.2 44.9 56 -1.1 30.1
01:50 1006 29.71 835 24.66 7.1 44.8 56 -1 30.2
01:55 1006 29.71 835 24.66 7 44.6 57 -0.9 30.3
02:00 1006 29.71 835 24.66 6.8 44.3 58 -0.9 30.4
02:05 1006 29.71 835 24.66 6.4 43.5 59 -1 30.2
02:10 1006 29.71 835 24.66 6 42.9 60 -1.1 30
02:15 1005 29.68 835 24.66 5.9 42.5 61 -1.2 29.9
02:20 1005 29.68 835 24.66 6 42.8 60 -1.2 29.8
02:25 1005 29.68 835 24.66 6.2 43.2 59 -1.2 29.8
02:30 1005 29.68 834 24.63 6.3 43.3 59 -1.2 29.9
02:35 1005 29.68 834 24.63 6.1 42.9 60 -1.1 30.1
02:40 1005 29.68 834 24.63 6 42.7 60 -1.3 29.7
02:45 1005 29.68 834 24.63 6.1 43 60 -1.1 30
02:50 1005 29.68 835 24.66 6.1 43 60 -1.1 30
02:55 1005 29.68 834 24.63 6.2 43.2 60 -1.1 30.1
03:00 1005 29.68 834 24.63 6.1 42.9 61 -0.8 30.5
03:05 1005 29.68 834 24.63 5.5 41.9 64 -0.7 30.7
03:10 1005 29.68 834 24.63 5.1 41.2 65 -0.8 30.5
03:15 1005 29.68 834 24.63 5 41 65 -1.1 30.1
03:20 1005 29.68 835 24.66 5.3 41.6 63 -1.1 30
03:25 1005 29.68 834 24.63 5.4 41.7 63 -0.9 30.3
03:30 1005 29.68 834 24.63 5.3 41.6 63 -1.1 30
03:35 1005 29.68 834 24.63 5.4 41.7 63 -1.1 30.1
03:40 1005 29.68 834 24.63 5.3 41.6 63 -1.1 30.1
03:45 1005 29.68 834 24.63 5 41 65 -0.9 30.4
03:50 1005 29.68 834 24.63 5 41 65 -1 30.2
03:55 1005 29.68 834 24.63 5.1 41.2 65 -1 30.3
04:00 1005 29.68 834 24.63 5.2 41.3 65 -0.8 30.5
04:05 1005 29.68 834 24.63 5.1 41.1 65 -1 30.3
04:10 1005 29.68 834 24.63 5.2 41.4 66 -0.6 31
04:15 1005 29.68 834 24.63 5.3 41.6 65 -0.7 30.7
04:20 1005 29.68 834 24.63 5.1 41.2 67 -0.6 30.9
04:25 1005 29.68 834 24.63 4.7 40.4 68 -0.8 30.6
04:30 1005 29.68 834 24.63 4.3 39.8 69 -0.9 30.3
04:35 1005 29.68 834 24.63 4.5 40 67 -1.1 30.1
04:40 1005 29.68 834 24.63 4.4 40 68 -1 30.3
04:45 1005 29.68 834 24.63 4.4 39.9 68 -1 30.2
04:50 1005 29.68 834 24.63 4.2 39.6 69 -1 30.2
04:55 1005 29.68 834 24.63 4 39.3 69 -1.1 30
05:00 1005 29.68 834 24.63 3.8 38.9 70 -1.2 29.9
05:05 1005 29.68 834 24.63 3.9 39.1 69 -1.3 29.7
05:10 1005 29.68 834 24.63 3.8 38.8 70 -1.2 29.8
05:15 1005 29.68 834 24.63 3.8 38.9 69 -1.3 29.7
05:20 1005 29.68 834 24.63 4.2 39.5 69 -1 30.2
05:25 1005 29.68 834 24.63 4.6 40.3 67 -1.1 30.1
05:30 1005 29.68 834 24.63 4.6 40.3 67 -1.1 30.1
05:35 1005 29.68 834 24.63 4.4 39.8 68 -1 30.2
05:40 1005 29.68 834 24.63 4 39.2 70 -1 30.1
05:45 1005 29.68 834 24.63 3.9 39 70 -1 30.1
05:50 1005 29.68 834 24.63 3.8 38.9 71 -0.9 30.3
05:55 1005 29.68 834 24.63 3.8 38.9 71 -1 30.3
06:00 1005 29.68 834 24.63 3.8 38.8 72 -0.9 30.4
06:05 1005 29.68 834 24.63 3.9 38.9 71 -0.8 30.5
06:10 1005 29.68 834 24.63 3.8 38.8 72 -0.8 30.6
06:15 1005 29.68 834 24.63 3.8 38.9 72 -0.8 30.6
06:20 1005 29.68 834 24.63 3.9 39 72 -0.7 30.8
06:25 1005 29.68 835 24.66 4 39.1 72 -0.7 30.8
06:30 1005 29.68 835 24.66 3.7 38.7 72 -0.8 30.5
06:35 1005 29.68 835 24.66 3.6 38.5 72 -0.9 30.4
06:40 1006 29.71 835 24.66 3.7 38.6 72 -1 30.3
06:45 1006 29.71 835 24.66 3.9 39 72 -0.8 30.6
06:50 1006 29.71 835 24.66 4.1 39.5 73 -0.2 31.6
06:55 1006 29.71 835 24.66 4.2 39.6 74 -0.1 31.9
07:00 1006 29.71 835 24.66 4.3 39.7 75 0.2 32.4
07:05 1006 29.71 835 24.66 4.4 39.9 76 0.5 32.9
07:10 1006 29.71 835 24.66 4.1 39.5 79 0.8 33.4
07:15 1006 29.71 835 24.66 3.8 38.9 79 0.6 33.1
07:20 1006 29.71 835 24.66 4 39.1 80 0.8 33.4
07:25 1006 29.71 835 24.66 4.1 39.4 79 0.9 33.6
07:30 1006 29.71 835 24.66 4.3 39.7 79 1 33.8
07:35 1006 29.71 835 24.66 4.3 39.7 79 1 33.8
07:40 1006 29.71 835 24.66 4.4 39.8 80 1.1 34
07:45 1006 29.71 835 24.66 4.4 39.9 80 1.2 34.2
07:50 1006 29.71 835 24.66 4.4 39.9 80 1.2 34.2
07:55 1006 29.71 835 24.66 4.2 39.6 81 1.3 34.3
08:00 1006 29.71 835 24.66 3.9 39.1 78 0.5 32.9
08:05 1006 29.71 835 24.66 3.6 38.4 79 0.2 32.4
08:10 1006 29.71 835 24.66 3.3 37.9 80 0.2 32.4
08:15 1006 29.71 835 24.66 3.3 37.9 81 0.2 32.4
08:20 1006 29.71 835 24.66 3.4 38.2 80 0.3 32.5
08:25 1006 29.71 835 24.66 3.5 38.4 80 0.4 32.7
08:30 1006 29.71 835 24.66 3.5 38.3 81 0.5 32.9
08:35 1006 29.71 835 24.66 3.6 38.5 80 0.5 33
08:40 1006 29.71 835 24.66 3.8 38.8 80 0.6 33.1
08:45 1006 29.71 835 24.66 3.7 38.7 81 0.8 33.5
08:50 1006 29.71 835 24.66 3.8 38.8 82 0.9 33.7
08:55 1006 29.71 835 24.66 3.8 38.8 83 1.1 34
09:00 1006 29.71 835 24.66 3.8 38.9 84 1.4 34.4
09:05 1006 29.71 836 24.69 3.9 39.1 84 1.4 34.6
09:10 1006 29.71 836 24.69 4 39.1 85 1.7 35
09:15 1006 29.71 836 24.69 3.8 38.9 85 1.6 34.9
09:20 1006 29.71 836 24.69 3.6 38.5 86 1.5 34.8
09:25 1006 29.71 836 24.69 3.5 38.3 87 1.6 34.8
09:30 1006 29.71 836 24.69 3.3 38 88 1.5 34.8
09:35 1006 29.71 836 24.69 3.3 37.9 87 1.4 34.5
09:40 1006 29.71 836 24.69 3.4 38.1 89 1.7 35.1
09:45 1006 29.71 836 24.69 3.3 38 88 1.6 34.8
09:50 1006 29.71 836 24.69 3.3 37.9 87 1.4 34.5
09:55 1006 29.71 836 24.69 3.1 37.6 89 1.4 34.6
10:00 1007 29.74 836 24.69 2.8 37 90 1.2 34.2
10:05 1007 29.74 836 24.69 2.3 36.2 92 1.2 34.1
10:10 1007 29.74 836 24.69 2.1 35.8 93 1.1 34
10:15 1007 29.74 836 24.69 2.1 35.9 93 1.2 34.1
10:20 1007 29.74 836 24.69 2.2 35.9 93 1.2 34.1
10:25 1007 29.74 836 24.69 2.2 36 94 1.3 34.3
10:30 1007 29.74 836 24.69 1.9 35.4 94 1 33.8
10:35 1007 29.74 836 24.69 1.6 34.8 96 1 33.8
10:40 1007 29.74 836 24.69 1.6 34.9 95 0.9 33.6
10:45 1007 29.74 836 24.69 1.5 34.7 96 0.8 33.5
10:50 1007 29.74 836 24.69 1.4 34.4 96 0.7 33.3
10:55 1007 29.74 836 24.69 1.2 34.2 96 0.7 33.2
11:00 1007 29.74 836 24.69 1.3 34.3 96 0.7 33.2
11:05 1007 29.74 836 24.69 1.2 34.2 96 0.6 33.1
11:10 1007 29.74 836 24.69 1.2 34.1 96 0.6 33.1
11:15 1007 29.74 836 24.69 1.1 34 96 0.6 33
11:20 1007 29.74 836 24.69 1.1 34 96 0.5 32.9
11:25 1007 29.74 836 24.69 1 33.9 96 0.5 32.9
11:30 1007 29.74 836 24.69 1.1 33.9 96 0.5 33
11:35 1007 29.74 836 24.69 1.1 34 95 0.5 32.8
11:40 1007 29.74 836 24.69 0.9 33.7 97 0.5 32.9
11:45 1007 29.74 837 24.72 1 33.8 97 0.5 33
11:50 1007 29.74 836 24.69 0.9 33.7 96 0.4 32.8
11:55 1007 29.74 837 24.72 0.8 33.5 97 0.4 32.7
12:00 1007 29.74 837 24.72 0.7 33.3 98 0.4 32.7
12:05 1007 29.74 837 24.72 0.7 33.3 98 0.5 32.8
12:10 1007 29.74 837 24.72 0.8 33.5 98 0.5 33
12:15 1007 29.74 837 24.72 0.9 33.6 97 0.5 33
12:20 1007 29.74 837 24.72 1.1 33.9 97 0.6 33.1
12:25 1007 29.74 837 24.72 1.1 34.1 96 0.6 33.1
12:30 1007 29.74 837 24.72 1.2 34.2 96 0.7 33.2
12:35 1007 29.74 837 24.72 1.4 34.5 95 0.7 33.2
12:40 1007 29.74 837 24.72 1.6 34.9 95 0.9 33.6
12:45 1008 29.77 837 24.72 1.7 35.1 94 0.9 33.5
12:50 1008 29.77 837 24.72 1.9 35.4 93 0.9 33.5
12:55 1007 29.74 837 24.72 1.9 35.4 93 0.9 33.6
13:00 1007 29.74 837 24.72 2 35.5 93 1 33.7
13:05 1008 29.77 837 24.72 1.9 35.5 93 0.9 33.6
13:10 1008 29.77 837 24.72 1.9 35.4 92 0.8 33.5
13:15 1008 29.77 837 24.72 1.9 35.4 92 0.7 33.3
13:20 1008 29.77 837 24.72 1.8 35.3 94 0.9 33.6
13:25 1008 29.77 837 24.72 1.8 35.3 93 0.8 33.5
13:30 1008 29.77 837 24.72 2.2 35.9 90 0.8 33.4
13:35 1008 29.77 837 24.72 2.4 36.3 90 0.9 33.5
13:40 1008 29.77 837 24.72 2.1 35.8 91 0.8 33.4
13:45 1008 29.77 837 24.72 1.9 35.4 93 0.9 33.6
13:50 1008 29.77 837 24.72 1.9 35.4 93 0.9 33.6
13:55 1008 29.77 837 24.72 2.1 35.7 93 1.1 33.9
14:00 1008 29.77 837 24.72 2.3 36.1 92 1.1 34
14:05 1008 29.77 837 24.72 2.3 36.1 92 1.1 34
14:10 1008 29.77 837 24.72 2.4 36.3 91 1.1 34
14:15 1008 29.77 837 24.72 2.8 37.1 89 1.3 34.3
14:20 1008 29.77 837 24.72 3 37.4 88 1.2 34.2
14:25 1008 29.77 837 24.72 2.6 36.7 91 1.2 34.2
14:30 1008 29.77 837 24.72 2.2 36 92 1 33.8
14:35 1008 29.77 837 24.72 1.9 35.5 93 1 33.7
14:40 1008 29.77 837 24.72 1.9 35.5 94 1 33.8
14:45 1008 29.77 837 24.72 2.4 36.2 91 1.1 33.9
14:50 1008 29.77 837 24.72 2.1 35.8 94 1.3 34.3
14:55 1008 29.77 837 24.72 1.7 35.1 95 1 33.8
15:00 1008 29.77 837 24.72 1.7 35.1 95 1 33.8
15:05 1008 29.77 837 24.72 1.7 35.1 95 1.1 33.9
15:10 1008 29.77 837 24.72 1.7 35 96 1 33.9
15:15 1008 29.77 838 24.75 1.8 35.3 95 1.1 33.9
15:20 1008 29.77 838 24.75 1.8 35.2 95 1.1 34
15:25 1008 29.77 838 24.75 1.9 35.4 95 1.2 34.2
15:30 1009 29.8 838 24.75 1.7 35.1 96 1.2 34.1
15:35 1009 29.8 838 24.75 1.6 34.8 96 1 33.8
15:40 1009 29.8 838 24.75 1.6 34.8 96 1 33.7
15:45 1009 29.8 838 24.75 1.6 34.8 96 1 33.8
15:50 1009 29.8 838 24.75 1.6 34.8 96 1 33.7
15:55 1009 29.8 838 24.75 1.7 35 96 1 33.9
16:00 1009 29.8 838 24.75 1.6 34.9 96 1 33.9
16:05 1009 29.8 838 24.75 1.6 34.9 96 1 33.8
16:10 1009 29.8 838 24.75 1.5 34.6 96 0.8 33.5
16:15 1009 29.8 838 24.75 1.5 34.6 96 0.9 33.6
16:20 1009 29.8 838 24.75 1.4 34.4 97 0.9 33.6
16:25 1009 29.8 838 24.75 1.5 34.6 97 1.1 33.9
16:30 1009 29.8 838 24.75 1.4 34.5 97 1 33.8
16:35 1009 29.8 838 24.75 1.3 34.4 97 0.9 33.7
16:40 1009 29.8 839 24.78 1.5 34.7 96 1 33.8
16:45 1009 29.8 839 24.78 1.6 35 96 1 33.9
16:50 1009 29.8 839 24.78 1.7 35 95 0.9 33.7
16:55 1009 29.8 839 24.78 1.9 35.3 95 1.1 34
17:00 1009 29.8 839 24.78 1.9 35.5 94 1 33.8
17:05 1010 29.83 839 24.78 2 35.7 94 1.1 34
17:10 1010 29.83 839 24.78 2.2 35.9 93 1.1 34
17:15 1010 29.83 839 24.78 2.1 35.9 93 1.1 34
17:20 1010 29.83 839 24.78 2.3 36.1 94 1.4 34.4
17:25 1010 29.83 839 24.78 2.4 36.3 93 1.4 34.4
17:30 1010 29.83 839 24.78 2.4 36.3 92 1.3 34.4
17:35 1010 29.83 839 24.78 2.6 36.6 93 1.5 34.7
17:40 1010 29.83 839 24.78 2.8 37 92 1.6 34.8
17:45 1010 29.83 839 24.78 2.8 37.1 91 1.5 34.8
17:50 1010 29.83 839 24.78 2.7 36.9 90 1.3 34.3
17:55 1010 29.83 839 24.78 2.8 37.1 90 1.3 34.3
18:00 1010 29.83 839 24.78 3 37.4 89 1.4 34.5
18:05 1010 29.83 839 24.78 3 37.4 89 1.3 34.4
18:10 1010 29.83 839 24.78 3 37.5 89 1.3 34.4
18:15 1010 29.83 839 24.78 3.1 37.5 87 1.1 34
18:20 1010 29.83 839 24.78 3 37.4 88 1.3 34.3
18:25 1010 29.83 840 24.81 3 37.5 88 1.3 34.3
18:30 1010 29.83 840 24.81 3.1 37.5 88 1.2 34.2
18:35 1010 29.83 840 24.81 3 37.4 87 1.1 34.1
18:40 1011 29.85 840 24.81 3 37.5 87 1.1 34.1
18:45 1011 29.85 840 24.81 3 37.4 89 1.3 34.3
18:50 1011 29.85 840 24.81 3 37.4 88 1.2 34.2
18:55 1011 29.85 840 24.81 3 37.5 89 1.3 34.4
19:00 1011 29.85 840 24.81 3.1 37.5 88 1.2 34.2
19:05 1011 29.85 840 24.81 3 37.4 88 1.2 34.1
19:10 1011 29.85 840 24.81 3 37.4 88 1.2 34.2
19:15 1011 29.85 840 24.81 3 37.3 89 1.3 34.3
19:20 1011 29.85 840 24.81 2.8 37 90 1.3 34.4
19:25 1011 29.85 840 24.81 2.6 36.7 91 1.4 34.5
19:30 1011 29.85 841 24.83 2.5 36.6 92 1.4 34.5
19:35 1011 29.85 841 24.83 2.4 36.3 93 1.4 34.5
19:40 1011 29.85 841 24.83 2.4 36.3 94 1.4 34.6
19:45 1012 29.88 841 24.83 2.4 36.3 94 1.5 34.7
19:50 1012 29.88 841 24.83 2.4 36.3 94 1.5 34.7
19:55 1012 29.88 841 24.83 2.4 36.3 94 1.6 34.8
20:00 1012 29.88 841 24.83 2.4 36.3 94 1.6 34.9
20:05 1012 29.88 841 24.83 2.4 36.4 94 1.6 34.8
20:10 1012 29.88 841 24.83 2.4 36.3 94 1.5 34.8
20:15 1012 29.88 841 24.83 2.4 36.3 94 1.5 34.7
20:20 1012 29.88 841 24.83 2.2 36 94 1.4 34.5
20:25 1012 29.88 841 24.83 2.1 35.7 95 1.3 34.4
20:30 1012 29.88 841 24.83 2 35.5 95 1.2 34.2
20:35 1012 29.88 842 24.86 1.9 35.4 94 1.1 34
20:40 1012 29.88 842 24.86 1.8 35.3 94 1 33.8
20:45 1013 29.91 842 24.86 1.7 35.1 95 1 33.8
20:50 1013 29.91 842 24.86 1.6 34.9 95 0.9 33.6
20:55 1013 29.91 842 24.86 1.4 34.6 96 0.8 33.5
21:00 1013 29.91 842 24.86 1.2 34.1 96 0.7 33.2
21:05 1013 29.91 842 24.86 0.9 33.7 97 0.6 33
21:10 1013 29.91 842 24.86 0.8 33.4 98 0.4 32.8
21:15 1013 29.91 842 24.86 0.7 33.3 98 0.5 32.9
21:20 1013 29.91 842 24.86 0.7 33.2 98 0.4 32.8
21:25 1013 29.91 842 24.86 0.7 33.2 99 0.5 32.8
21:30 1013 29.91 843 24.89 0.6 33.1 99 0.4 32.8
21:35 1013 29.91 843 24.89 0.6 33.2 99 0.5 32.9
21:40 1013 29.91 843 24.89 0.7 33.2 99 0.5 32.8
21:45 1013 29.91 843 24.89 0.6 33.1 99 0.5 32.8
21:50 1013 29.91 843 24.89 0.8 33.4 99 0.7 33.2
21:55 1014 29.94 843 24.89 1.2 34.1 99 1.1 33.9
22:00 1014 29.94 843 24.89 1.5 34.7 99 1.4 34.5
22:05 1014 29.94 843 24.89 1.7 35 99 1.5 34.6
22:10 1014 29.94 843 24.89 1.7 35 98 1.3 34.4
22:15 1014 29.94 843 24.89 1.5 34.7 97 1.1 34.1
22:20 1014 29.94 844 24.92 1.4 34.5 97 1 33.8
22:25 1015 29.97 844 24.92 1.3 34.3 98 1 33.8
22:30 1015 29.97 844 24.92 1.3 34.3 98 1 33.7
22:35 1015 29.97 844 24.92 0.9 33.7 98 0.6 33.1
22:40 1015 29.97 844 24.92 0.8 33.4 98 0.5 33
22:45 1015 29.97 844 24.92 0.7 33.2 99 0.5 32.9
22:50 1015 29.97 844 24.92 0.6 33 99 0.4 32.7
22:55 1015 29.97 844 24.92 0.6 33 99 0.4 32.7
23:00 1015 29.97 844 24.92 0.5 32.9 99 0.4 32.7
23:05 1015 29.97 844 24.92 0.5 32.8 99 0.4 32.7
23:10 1015 29.97 845 24.95 0.5 32.8 99 0.3 32.6
23:15 1015 29.97 845 24.95 0.4 32.6 99 0.3 32.5
23:20 1016 30 845 24.95 0.3 32.6 100 0.3 32.6
23:25 1016 30 845 24.95 0.3 32.6 100 0.3 32.5
23:30 1016 30 845 24.95 0.3 32.6 100 0.3 32.6
23:35 1016 30 845 24.95 0.4 32.7 100 0.3 32.6
23:40 1016 30 845 24.95 0.4 32.7 100 0.4 32.7
23:45 1016 30 845 24.95 0.3 32.6 100 0.3 32.6
23:50 1016 30 845 24.95 0.3 32.6 100 0.3 32.6
23:55 1016 30 845 24.95 0.3 32.6 100 0.3 32.6
24:00 1016 30 845 24.95 0.4 32.6 100 0.3 32.6